createdAt,value
2023-05-09T00:01:56.506Z,6.07
2023-05-09T00:04:25.404Z,6.06
2023-05-09T00:06:53.321Z,6.04
2023-05-09T00:09:20.934Z,6.02
2023-05-09T00:11:48.613Z,6.00
2023-05-09T00:14:18.242Z,6.00
2023-05-09T00:16:46.047Z,5.97
2023-05-09T00:19:13.821Z,5.96
2023-05-09T00:21:41.425Z,5.96
2023-05-09T00:24:09.094Z,5.96
2023-05-09T00:26:36.820Z,5.95
2023-05-09T00:29:04.451Z,5.94
2023-05-09T00:31:32.153Z,5.93
2023-05-09T00:33:59.976Z,5.89
2023-05-09T00:36:27.665Z,5.88
2023-05-09T00:38:55.314Z,5.86
2023-05-09T00:41:22.937Z,5.87
2023-05-09T00:43:50.611Z,5.85
2023-05-09T00:46:18.324Z,5.82
2023-05-09T00:48:46.479Z,5.78
2023-05-09T00:51:14.688Z,5.74
2023-05-09T00:53:42.485Z,5.74
2023-05-09T00:56:12.000Z,5.73
2023-05-09T00:58:39.756Z,5.70
2023-05-09T01:01:08.462Z,5.61
2023-05-09T01:03:39.768Z,5.54
2023-05-09T01:06:39.527Z,5.50
2023-05-09T01:09:15.184Z,5.44
2023-05-09T01:11:58.995Z,5.39
2023-05-09T01:14:41.625Z,5.32
2023-05-09T01:17:27.229Z,5.25
2023-05-09T01:20:13.592Z,5.23
2023-05-09T01:22:48.548Z,5.21
2023-05-09T01:25:50.733Z,5.19
2023-05-09T01:28:21.500Z,5.20
2023-05-09T01:30:53.479Z,5.20
2023-05-09T01:33:24.146Z,5.19
2023-05-09T01:35:57.862Z,5.18
2023-05-09T01:38:26.118Z,5.14
2023-05-09T01:40:58.328Z,5.08
2023-05-09T01:43:29.565Z,5.05
2023-05-09T01:45:59.543Z,5.04
2023-05-09T01:48:30.813Z,5.01
2023-05-09T01:51:00.170Z,4.98
2023-05-09T01:53:29.308Z,4.97
2023-05-09T01:55:59.340Z,4.97
2023-05-09T01:58:28.043Z,4.98
2023-05-09T02:00:56.197Z,4.97
2023-05-09T02:03:25.879Z,4.94
2023-05-09T02:05:55.513Z,4.91
2023-05-09T02:08:23.711Z,4.90
2023-05-09T02:10:51.597Z,4.87
2023-05-09T02:13:19.363Z,4.84
2023-05-09T02:15:47.710Z,4.78
2023-05-09T02:18:17.491Z,4.71
2023-05-09T02:20:45.863Z,4.64
2023-05-09T02:23:13.859Z,4.55
2023-05-09T02:25:41.472Z,4.45
2023-05-09T02:28:10.424Z,4.34
2023-05-09T02:30:43.094Z,4.28
2023-05-09T02:33:12.668Z,4.25
2023-05-09T02:35:43.801Z,4.21
2023-05-09T02:38:14.374Z,4.17
2023-05-09T02:40:47.555Z,4.17
2023-05-09T02:43:15.554Z,4.14
2023-05-09T02:45:43.798Z,4.15
2023-05-09T02:48:11.589Z,4.17
2023-05-09T02:50:42.780Z,4.20
2023-05-09T02:53:10.899Z,4.21
2023-05-09T02:55:40.546Z,4.23
2023-05-09T02:58:14.191Z,4.22
2023-05-09T03:00:43.184Z,4.18
2023-05-09T03:03:11.241Z,4.09
2023-05-09T03:05:39.164Z,4.05
2023-05-09T03:08:06.914Z,4.00
2023-05-09T03:10:35.081Z,3.94
2023-05-09T03:13:03.577Z,3.89
2023-05-09T03:15:31.633Z,3.88
2023-05-09T03:18:00.242Z,3.88
2023-05-09T03:20:28.150Z,3.91
2023-05-09T03:22:55.969Z,3.95
2023-05-09T03:25:24.477Z,4.00
2023-05-09T03:27:52.178Z,4.03
2023-05-09T03:30:20.198Z,4.06
2023-05-09T03:32:49.401Z,4.08
2023-05-09T03:35:17.507Z,4.10
2023-05-09T03:37:45.266Z,4.10
2023-05-09T03:40:13.284Z,4.10
2023-05-09T03:42:49.336Z,4.12
2023-05-09T03:45:17.092Z,4.13
2023-05-09T03:47:46.210Z,4.10
2023-05-09T03:50:14.355Z,4.12
2023-05-09T03:52:42.496Z,4.16
2023-05-09T03:55:10.659Z,4.18
2023-05-09T03:57:38.548Z,4.22
2023-05-09T04:00:08.083Z,4.24
2023-05-09T04:02:42.748Z,4.27
2023-05-09T04:05:17.628Z,4.29
2023-05-09T04:07:46.505Z,4.31
2023-05-09T04:10:15.387Z,4.36
2023-05-09T04:12:43.430Z,4.42
2023-05-09T04:15:12.336Z,4.49
2023-05-09T04:17:40.956Z,4.58
2023-05-09T04:20:10.655Z,4.66
2023-05-09T04:22:38.325Z,4.75
2023-05-09T04:25:07.394Z,4.84
2023-05-09T04:27:35.543Z,4.94
2023-05-09T04:30:04.147Z,5.00
2023-05-09T04:32:32.142Z,5.09
2023-05-09T04:34:59.761Z,5.17
2023-05-09T04:37:31.543Z,5.26
2023-05-09T04:39:59.766Z,5.36
2023-05-09T04:42:33.764Z,5.45
2023-05-09T04:45:01.887Z,5.55
2023-05-09T04:47:30.483Z,5.64
2023-05-09T04:49:58.246Z,5.78
2023-05-09T04:52:25.893Z,5.89
2023-05-09T04:54:54.231Z,6.01
2023-05-09T04:57:22.541Z,6.14
2023-05-09T04:59:54.082Z,6.28
2023-05-09T05:02:22.229Z,6.43
2023-05-09T05:04:51.900Z,6.58
2023-05-09T05:07:21.401Z,6.72
2023-05-09T05:09:49.004Z,6.85
2023-05-09T05:12:16.819Z,6.97
2023-05-09T05:14:44.850Z,7.10
2023-05-09T05:17:15.649Z,7.22
2023-05-09T05:19:46.612Z,7.32
2023-05-09T05:22:15.473Z,7.43
2023-05-09T05:24:44.278Z,7.52
2023-05-09T05:27:12.466Z,7.63
2023-05-09T05:29:40.108Z,7.75
2023-05-09T05:32:07.944Z,7.86
2023-05-09T05:34:35.705Z,8.00
2023-05-09T05:37:03.673Z,8.12
2023-05-09T05:39:31.278Z,8.24
2023-05-09T05:41:58.963Z,8.36
2023-05-09T05:44:26.796Z,8.49
2023-05-09T05:46:54.679Z,8.62
2023-05-09T05:49:22.376Z,8.75
2023-05-09T05:51:50.542Z,8.88
2023-05-09T05:54:18.371Z,9.02
2023-05-09T05:56:46.071Z,9.15
2023-05-09T05:59:13.940Z,9.30
2023-05-09T06:01:41.992Z,9.45
2023-05-09T06:16:46.460Z,10.92
2023-05-09T06:19:15.541Z,11.29
2023-05-09T06:21:43.735Z,11.41
2023-05-09T06:24:23.445Z,11.53
2023-05-09T06:26:59.308Z,11.66
2023-05-09T06:29:27.032Z,11.77
2023-05-09T06:31:54.859Z,11.88
2023-05-09T06:34:22.629Z,12.00
2023-05-09T06:36:50.288Z,12.12
2023-05-09T06:39:17.895Z,12.23
2023-05-09T06:41:45.711Z,12.36
2023-05-09T06:44:21.543Z,12.47
2023-05-09T06:46:49.655Z,12.59
2023-05-09T06:49:17.303Z,12.71
2023-05-09T06:51:45.032Z,12.83
2023-05-09T06:54:12.703Z,12.94
2023-05-09T06:56:40.406Z,13.04
2023-05-09T06:59:08.170Z,13.12
2023-05-09T07:01:35.802Z,13.17
2023-05-09T07:04:03.630Z,13.20
2023-05-09T07:06:31.533Z,13.26
2023-05-09T07:08:59.130Z,13.31
2023-05-09T07:11:26.888Z,13.37
2023-05-09T07:13:54.612Z,13.42
2023-05-09T07:16:23.106Z,13.46
2023-05-09T07:18:50.930Z,13.51
2023-05-09T07:21:18.566Z,13.54
2023-05-09T07:23:46.366Z,13.55
2023-05-09T07:26:14.010Z,13.62
2023-05-09T07:28:41.605Z,13.70
2023-05-09T07:31:09.356Z,13.78
2023-05-09T07:33:37.025Z,13.86
2023-05-09T07:36:04.912Z,13.92
2023-05-09T07:38:32.767Z,13.95
2023-05-09T07:41:01.078Z,13.98
2023-05-09T07:43:28.694Z,14.04
2023-05-09T07:45:56.328Z,14.09
2023-05-09T07:48:24.076Z,14.12
2023-05-09T07:50:51.853Z,14.16
2023-05-09T07:53:19.482Z,14.19
2023-05-09T07:55:55.065Z,14.21
2023-05-09T08:03:00.800Z,14.33
2023-05-09T08:05:28.773Z,14.45
2023-05-09T08:07:56.377Z,14.58
2023-05-09T08:10:24.858Z,14.65
2023-05-09T08:12:52.906Z,14.69
2023-05-09T08:15:21.004Z,14.74
2023-05-09T08:17:48.722Z,14.81
2023-05-09T08:20:17.157Z,14.85
2023-05-09T08:22:44.829Z,14.82
2023-05-09T08:25:14.486Z,14.82
2023-05-09T08:27:42.341Z,14.86
2023-05-09T08:30:10.669Z,14.90
2023-05-09T08:32:38.310Z,14.95
2023-05-09T08:35:08.740Z,15.01
2023-05-09T08:37:36.624Z,15.07
2023-05-09T08:40:07.912Z,15.14
2023-05-09T08:42:38.163Z,15.20
2023-05-09T08:45:09.795Z,15.25
2023-05-09T08:47:38.301Z,15.31
2023-05-09T08:50:07.425Z,15.37
2023-05-09T08:52:35.563Z,15.41
2023-05-09T08:55:06.545Z,15.46
2023-05-09T08:57:35.233Z,15.52
2023-05-09T09:00:10.994Z,15.58
2023-05-09T09:02:42.003Z,15.64
2023-05-09T09:05:19.909Z,15.69
2023-05-09T09:07:58.734Z,15.71
2023-05-09T09:10:29.931Z,15.71
2023-05-09T09:12:59.433Z,15.72
2023-05-09T09:15:35.892Z,15.76
2023-05-09T09:18:10.092Z,15.81
2023-05-09T09:20:46.166Z,15.89
2023-05-09T09:23:19.752Z,15.96
2023-05-09T09:25:48.146Z,15.96
2023-05-09T09:28:15.810Z,15.95
2023-05-09T09:30:45.256Z,15.97
2023-05-09T09:33:19.388Z,16.02
2023-05-09T09:35:51.562Z,16.10
2023-05-09T09:38:20.836Z,16.15
2023-05-09T09:40:59.421Z,16.18
2023-05-09T09:43:31.076Z,16.19
2023-05-09T09:46:04.099Z,16.22
2023-05-09T09:48:34.078Z,16.29
2023-05-09T09:51:11.370Z,16.36
2023-05-09T09:53:41.784Z,16.42
2023-05-09T09:56:09.872Z,16.47
2023-05-09T09:58:39.331Z,16.49
2023-05-09T10:01:16.481Z,16.51
2023-05-09T10:03:46.086Z,16.55
2023-05-09T10:06:16.468Z,16.60
2023-05-09T10:08:48.937Z,16.69
2023-05-09T10:11:16.680Z,16.77
2023-05-09T10:13:45.737Z,16.83
2023-05-09T10:16:13.891Z,16.81
2023-05-09T10:18:43.004Z,16.80
2023-05-09T10:21:13.892Z,16.83
2023-05-09T10:23:46.880Z,16.85
2023-05-09T10:26:28.541Z,16.90
2023-05-09T10:29:00.452Z,16.97
2023-05-09T10:31:32.607Z,17.02
2023-05-09T10:34:04.477Z,17.09
2023-05-09T10:36:32.857Z,17.14
2023-05-09T10:39:04.780Z,17.18
2023-05-09T10:41:37.336Z,17.25
2023-05-09T10:44:05.718Z,17.30
2023-05-09T10:46:33.929Z,17.35
2023-05-09T10:49:02.115Z,17.39
2023-05-09T10:51:31.078Z,17.40
2023-05-09T10:53:59.979Z,17.43
2023-05-09T10:56:33.134Z,17.46
2023-05-09T10:59:01.344Z,17.50
2023-05-09T11:01:34.451Z,17.55
2023-05-09T11:04:11.047Z,17.59
2023-05-09T11:06:42.322Z,17.60
2023-05-09T11:09:29.558Z,17.63
2023-05-09T11:12:01.679Z,17.68
2023-05-09T11:14:49.662Z,17.74
2023-05-09T11:17:32.700Z,17.79
2023-05-09T11:20:07.050Z,17.81
2023-05-09T11:22:47.040Z,17.87
2023-05-09T11:25:17.900Z,17.93
2023-05-09T11:27:50.642Z,17.93
2023-05-09T11:30:20.818Z,17.91
2023-05-09T11:32:57.928Z,17.93
2023-05-09T11:37:29.127Z,18.03
2023-05-09T11:40:56.146Z,18.17
2023-05-09T11:43:23.902Z,18.24
2023-05-09T11:45:53.068Z,18.32
2023-05-09T11:48:23.981Z,18.40
2023-05-09T11:50:51.556Z,18.53
2023-05-09T11:53:19.424Z,18.64
2023-05-09T11:55:47.552Z,18.69
2023-05-09T11:58:15.703Z,18.73
2023-05-09T12:00:45.363Z,18.88
2023-05-09T12:03:14.031Z,19.00
2023-05-09T12:05:42.658Z,19.16
2023-05-09T12:08:10.384Z,19.35
2023-05-09T12:10:39.640Z,19.50
2023-05-09T12:13:11.063Z,19.73
2023-05-09T12:15:39.068Z,20.00
2023-05-09T12:18:08.609Z,20.31
2023-05-09T12:20:47.826Z,20.69
2023-05-09T12:23:16.572Z,21.15
2023-05-09T12:26:00.194Z,21.70
2023-05-09T12:28:28.532Z,22.47
2023-05-09T12:30:56.836Z,23.37
2023-05-09T12:33:25.597Z,24.34
2023-05-09T12:36:11.064Z,25.27
2023-05-09T12:38:39.502Z,26.44
2023-05-09T12:41:18.882Z,27.50
2023-05-09T12:43:56.342Z,28.46
2023-05-09T12:46:24.183Z,29.16
2023-05-09T12:48:51.930Z,29.73
2023-05-09T12:51:21.074Z,30.58
2023-05-09T12:53:49.001Z,31.43
2023-05-09T12:56:18.837Z,32.36
2023-05-09T12:58:55.013Z,33.29
2023-05-09T13:01:27.610Z,34.03
2023-05-09T13:04:04.589Z,34.47
2023-05-09T13:06:32.862Z,34.93
2023-05-09T13:09:07.233Z,35.49
2023-05-09T13:11:37.783Z,36.23
2023-05-09T13:14:05.471Z,36.88
2023-05-09T13:16:33.187Z,37.44
2023-05-09T13:19:05.370Z,37.52
2023-05-09T13:21:36.573Z,37.41
2023-05-09T13:24:04.911Z,37.50
2023-05-09T13:26:32.888Z,38.14
2023-05-09T13:29:01.078Z,38.61
2023-05-09T13:38:50.868Z,39.97
2023-05-09T13:41:22.394Z,39.85
2023-05-09T13:43:50.131Z,40.07
2023-05-09T13:46:17.784Z,40.08
2023-05-09T13:48:47.058Z,40.56
2023-05-09T13:51:14.942Z,41.14
2023-05-09T13:53:42.597Z,41.45
2023-05-09T13:56:10.566Z,41.45
2023-05-09T13:58:38.153Z,40.76
2023-05-09T14:01:06.677Z,40.47
2023-05-09T14:03:37.156Z,40.39
2023-05-09T14:06:05.015Z,40.49
2023-05-09T14:08:33.112Z,40.62
2023-05-09T14:11:01.575Z,40.79
2023-05-09T14:13:31.737Z,40.84
2023-05-09T14:15:59.801Z,40.94
2023-05-09T14:18:27.623Z,41.02
2023-05-09T14:20:55.232Z,40.90
2023-05-09T14:23:22.851Z,40.61
2023-05-09T14:25:50.497Z,40.51
2023-05-09T14:28:18.218Z,40.83
2023-05-09T14:30:45.850Z,40.73
2023-05-09T14:33:14.436Z,39.99
2023-05-09T14:35:42.256Z,39.28
2023-05-09T14:38:09.963Z,39.03
2023-05-09T14:40:37.715Z,39.07
2023-05-09T14:43:05.950Z,39.29
2023-05-09T14:45:33.668Z,39.61
2023-05-09T14:48:05.713Z,40.08
2023-05-09T14:50:33.589Z,40.29
2023-05-09T14:53:01.984Z,40.04
2023-05-09T14:55:31.138Z,39.70
2023-05-09T14:57:58.925Z,39.68
2023-05-09T15:00:28.152Z,39.20
2023-05-09T15:02:56.351Z,38.56
2023-05-09T15:05:25.072Z,38.41
2023-05-09T15:07:52.798Z,38.46
2023-05-09T15:10:20.620Z,38.25
2023-05-09T15:12:48.259Z,38.17
2023-05-09T15:15:19.031Z,38.16
2023-05-09T15:17:47.279Z,38.12
2023-05-09T15:20:17.512Z,37.98
2023-05-09T15:22:49.831Z,37.92
2023-05-09T15:25:18.113Z,37.94
2023-05-09T15:27:45.825Z,37.69
2023-05-09T15:30:14.180Z,37.41
2023-05-09T15:32:42.139Z,37.11
2023-05-09T15:35:10.212Z,36.77
2023-05-09T15:37:38.348Z,36.61
2023-05-09T15:40:07.817Z,36.26
2023-05-09T15:42:36.220Z,35.81
2023-05-09T15:45:04.489Z,35.79
2023-05-09T15:47:32.133Z,35.67
2023-05-09T15:50:00.040Z,35.26
2023-05-09T15:52:27.749Z,34.96
2023-05-09T15:54:56.256Z,34.62
2023-05-09T15:57:25.079Z,34.55
2023-05-09T15:59:55.910Z,34.55
2023-05-09T16:02:24.072Z,34.44
2023-05-09T16:04:51.977Z,34.33
2023-05-09T16:07:20.469Z,34.11
2023-05-09T16:09:48.517Z,33.92
2023-05-09T16:12:16.139Z,33.76
2023-05-09T16:14:43.844Z,33.64
2023-05-09T16:17:12.452Z,33.58
2023-05-09T16:19:40.909Z,33.50
2023-05-09T16:22:08.538Z,33.27
2023-05-09T16:24:37.375Z,33.05
2023-05-09T16:27:04.998Z,32.91
2023-05-09T16:29:32.637Z,32.61
2023-05-09T16:32:00.488Z,32.30
2023-05-09T16:34:28.439Z,31.88
2023-05-09T16:36:56.304Z,31.43
2023-05-09T16:39:23.973Z,31.12
2023-05-09T16:41:51.681Z,31.10
2023-05-09T16:44:19.518Z,31.03
2023-05-09T16:46:47.278Z,30.84
2023-05-09T16:49:15.251Z,30.55
2023-05-09T16:51:45.960Z,30.18
2023-05-09T16:54:13.640Z,29.82
2023-05-09T16:56:42.212Z,29.61
2023-05-09T16:59:09.857Z,29.22
2023-05-09T17:01:37.631Z,28.42
2023-05-09T17:04:06.902Z,27.55
2023-05-09T17:06:34.863Z,26.58
2023-05-09T17:09:02.493Z,25.68
2023-05-09T17:11:30.194Z,25.10
2023-05-09T17:13:57.836Z,24.43
2023-05-09T17:16:25.493Z,23.58
2023-05-09T17:18:53.234Z,22.83
2023-05-09T17:21:21.489Z,22.11
2023-05-09T17:23:49.078Z,21.48
2023-05-09T17:26:16.746Z,20.94
2023-05-09T17:28:44.890Z,20.41
2023-05-09T17:31:13.218Z,19.97
2023-05-09T17:33:43.394Z,19.57
2023-05-09T17:36:10.982Z,19.16
2023-05-09T17:38:38.587Z,18.77
2023-05-09T17:41:07.108Z,18.43
2023-05-09T17:43:34.898Z,18.17
2023-05-09T17:46:02.762Z,17.92
2023-05-09T17:48:30.558Z,17.67
2023-05-09T17:50:58.175Z,17.44
2023-05-09T17:53:26.446Z,17.19
2023-05-09T17:55:54.038Z,16.96
2023-05-09T17:58:23.140Z,16.76
2023-05-09T18:00:55.081Z,16.58
2023-05-09T18:03:22.944Z,16.38
2023-05-09T18:05:50.692Z,16.17
2023-05-09T18:08:18.450Z,15.98
2023-05-09T18:10:46.318Z,15.79
2023-05-09T18:13:14.146Z,15.59
2023-05-09T18:15:41.940Z,15.39
2023-05-09T18:18:11.534Z,15.21
2023-05-09T18:20:40.664Z,15.03
2023-05-09T18:23:08.281Z,14.84
2023-05-09T18:25:36.096Z,14.67
2023-05-09T18:28:04.284Z,14.49
2023-05-09T18:30:32.315Z,14.35
2023-05-09T18:33:01.426Z,14.21
2023-05-09T18:35:29.239Z,14.07
2023-05-09T18:37:56.979Z,13.92
2023-05-09T18:40:24.626Z,13.82
2023-05-09T18:42:52.195Z,13.78
2023-05-09T18:45:19.820Z,13.72
2023-05-09T18:47:47.437Z,13.66
2023-05-09T18:50:15.446Z,13.57
2023-05-09T18:52:44.389Z,13.50
2023-05-09T18:55:14.600Z,13.41
2023-05-09T18:57:42.223Z,13.31
2023-05-09T19:00:10.438Z,13.24
2023-05-09T19:02:38.175Z,13.17
2023-05-09T19:05:07.838Z,13.09
2023-05-09T19:07:36.163Z,13.01
2023-05-09T19:10:05.250Z,12.91
2023-05-09T19:12:34.072Z,12.80
2023-05-09T19:15:02.535Z,12.69
2023-05-09T19:17:30.169Z,12.57
2023-05-09T19:19:58.195Z,12.43
2023-05-09T19:22:25.870Z,12.32
2023-05-09T19:24:53.478Z,12.22
2023-05-09T19:27:21.077Z,12.13
2023-05-09T19:29:49.919Z,12.04
2023-05-09T19:32:18.101Z,11.95
2023-05-09T19:34:45.791Z,11.83
2023-05-09T19:37:13.519Z,11.75
2023-05-09T19:39:41.452Z,11.65
2023-05-09T19:42:09.321Z,11.54
2023-05-09T19:44:36.916Z,11.42
2023-05-09T19:47:05.317Z,11.31
2023-05-09T19:49:32.978Z,11.22
2023-05-09T19:52:00.877Z,11.15
2023-05-09T19:54:28.490Z,11.09
2023-05-09T19:56:56.075Z,11.03
2023-05-09T19:59:23.701Z,10.93
2023-05-09T20:01:51.320Z,10.85
2023-05-09T20:04:21.692Z,10.79
2023-05-09T20:06:50.475Z,10.67
2023-05-09T20:09:20.838Z,10.56
2023-05-09T20:11:48.613Z,10.45
2023-05-09T20:14:16.647Z,10.36
2023-05-09T20:16:44.611Z,10.26
2023-05-09T20:19:14.109Z,10.16
2023-05-09T20:21:41.959Z,10.06
2023-05-09T20:24:11.355Z,10.04
2023-05-09T20:26:39.254Z,9.98
2023-05-09T20:29:06.931Z,9.94
2023-05-09T20:31:34.608Z,9.92
2023-05-09T20:34:02.504Z,9.88
2023-05-09T20:36:30.514Z,9.85
2023-05-09T20:38:58.221Z,9.84
2023-05-09T20:41:25.855Z,9.81
2023-05-09T20:43:53.522Z,9.78
2023-05-09T20:46:21.220Z,9.74
2023-05-09T20:48:48.981Z,9.65
2023-05-09T20:51:16.567Z,9.55
2023-05-09T20:53:44.163Z,9.47
2023-05-09T20:56:11.855Z,9.38
2023-05-09T20:58:39.547Z,9.34
2023-05-09T21:01:07.204Z,9.34
2023-05-09T21:03:34.995Z,9.33
2023-05-09T21:06:02.689Z,9.33
2023-05-09T21:08:30.281Z,9.28
2023-05-09T21:10:57.979Z,9.24
2023-05-09T21:13:25.622Z,9.21
2023-05-09T21:15:53.400Z,9.16
2023-05-09T21:18:21.096Z,9.10
2023-05-09T21:20:48.953Z,9.04
2023-05-09T21:23:18.467Z,8.99
2023-05-09T21:25:46.073Z,8.92
2023-05-09T21:28:15.432Z,8.84
2023-05-09T21:30:43.062Z,8.77
2023-05-09T21:33:10.860Z,8.71
2023-05-09T21:35:38.636Z,8.67
2023-05-09T21:38:06.225Z,8.60
2023-05-09T21:40:33.853Z,8.55
2023-05-09T21:43:01.461Z,8.51
2023-05-09T21:45:29.558Z,8.47
2023-05-09T21:47:57.538Z,8.45
2023-05-09T21:50:25.238Z,8.42
2023-05-09T21:52:52.891Z,8.41
2023-05-09T21:55:20.746Z,8.41
2023-05-09T21:57:48.334Z,8.40
2023-05-09T22:00:17.323Z,8.40
2023-05-09T22:02:45.218Z,8.39
2023-05-09T22:05:13.006Z,8.35
2023-05-09T22:07:40.640Z,8.27
2023-05-09T22:10:08.852Z,8.19
2023-05-09T22:12:36.732Z,8.15
2023-05-09T22:15:05.116Z,8.12
2023-05-09T22:17:33.220Z,8.08
2023-05-09T22:20:01.252Z,8.05
2023-05-09T22:22:29.629Z,8.00
2023-05-09T22:24:57.754Z,7.94
2023-05-09T22:27:25.586Z,7.91
2023-05-09T22:29:53.756Z,7.91
2023-05-09T22:32:21.393Z,7.91
2023-05-09T22:34:49.090Z,7.92
2023-05-09T22:37:16.792Z,7.93
2023-05-09T22:39:47.304Z,7.94
2023-05-09T22:42:15.980Z,7.94
2023-05-09T22:44:43.644Z,7.92
2023-05-09T22:47:11.371Z,7.90
2023-05-09T22:49:38.996Z,7.89
2023-05-09T22:52:06.875Z,7.88
2023-05-09T22:54:34.459Z,7.87
2023-05-09T22:57:02.056Z,7.87
2023-05-09T22:59:29.683Z,7.86
2023-05-09T23:01:58.414Z,7.82
2023-05-09T23:04:26.219Z,7.78
2023-05-09T23:06:53.863Z,7.74
2023-05-09T23:09:22.190Z,7.74
2023-05-09T23:11:49.829Z,7.74
2023-05-09T23:14:17.664Z,7.75
2023-05-09T23:16:45.316Z,7.75
2023-05-09T23:19:12.940Z,7.75
2023-05-09T23:21:40.554Z,7.76
2023-05-09T23:24:08.381Z,7.75
2023-05-09T23:26:35.968Z,7.73
2023-05-09T23:29:03.645Z,7.75
2023-05-09T23:31:31.341Z,7.73
2023-05-09T23:33:59.872Z,7.74
2023-05-09T23:36:28.143Z,7.74
2023-05-09T23:38:55.771Z,7.75
2023-05-09T23:41:23.347Z,7.75
2023-05-09T23:43:51.001Z,7.73
2023-05-09T23:46:18.873Z,7.73
2023-05-09T23:48:46.633Z,7.71
2023-05-09T23:51:14.315Z,7.67
2023-05-09T23:53:41.912Z,7.65
2023-05-09T23:56:09.505Z,7.63
2023-05-09T23:58:37.114Z,7.62
